Nearby METAR Reports

 

YSCB - Canberra (civ/Mi, Australia
Distance from station: NNE 21km
Updated: 27/05/2018 05:00
Clear
Clear
 Wind from NNW
Wind: NNW 6 km/h
Temperature: -1°C
Dew Point: -1°C
Humidity: 100%
Barometer: 1028 hPa
Clouds: Clear
Visibility: 5 km
2018/05/26 19:00 YSCB 261900Z AUTO 34003KT 4600 // NCD M01/M01 Q1028
YCOM - Cooma Snowy Mtns, Australia
Distance from station: S 94km
Updated: 27/05/2018 05:00
Clear
Clear
 Wind from NNE
Wind: NNE 9 km/h
Temperature: -2°C
Wind Chill: -6°C
Dew Point: -4°C
Humidity: 86%
Barometer: 1028 hPa
Clouds: Clear
Visibility: 10 km
2018/05/26 19:00 YCOM 261900Z AUTO 02005KT 9999 // NCD M02/M04 Q1028
 
YSNW - Nowra (aus-Navy), Australia
Distance from station: ENE 140km
Updated: 27/05/2018 05:00
Clear
Clear
 Wind from NW
Wind: NW 13 km/h
Temperature: 9°C
Wind Chill: 7°C
Dew Point: 8°C
Humidity: 94%
Barometer: 1026 hPa
Clouds: Clear
Visibility: 10 km
2018/05/26 19:00 YSNW 261900Z AUTO 31007KT 9999 // NCD 09/08 Q1026
YSWG - Wagga Wagga(Cv/M, Australia
Distance from station: WNW 153km
Updated: 27/05/2018 05:00
Mostly cloudy
Mostly cloudy
 Wind from E
Wind: E 15 km/h
Temperature: 9°C
Wind Chill: 7°C
Dew Point: 6°C
Humidity: 82%
Barometer: 1026 hPa
Clouds: Mostly cloudy
Visibility: 10 km
Cloud details: Mostly cloudy 1829 m
2018/05/26 19:00 YSWG 261900Z AUTO 10008KT 9999 // BKN060 09/06 Q1026
 
YMER - Merimbula Arpt, Australia
Distance from station: SSE 177km
Updated: 27/05/2018 05:00
Clear
Clear
 Wind from SSW
Wind: SSW 9 km/h
Temperature: 4°C
Wind Chill: 2°C
Dew Point: 3°C
Humidity: 93%
Barometer: 1026 hPa
Clouds: Clear
Visibility: 10 km
2018/05/26 19:00 YMER 261900Z AUTO 20005KT 9999 // NCD 04/03 Q1026
YMAY - Albury Airport, Australia
Distance from station: WSW 207km
Updated: 27/05/2018 05:00
Mostly cloudy
Mostly cloudy
 Wind from calm
Wind: Calm
Temperature: 7°C
Dew Point: 6°C
Humidity: 93%
Barometer: 1026 hPa
Clouds: Mostly cloudy
Visibility: 10 km
Cloud details: Mostly cloudy 2042 m
2018/05/26 19:00 YMAY 261900Z AUTO 00000KT 9999 // BKN067 07/06 Q1026
 
YNAR - Narrandera, Australia
Distance from station: WNW 250km
Updated: 27/05/2018 05:00

 Wind from ESE
Wind: ESE 9 km/h
Temperature: 10°C
Wind Chill: 9°C
Dew Point: 5°C
Humidity: 71%
Barometer: 1026 hPa
2018/05/26 19:00 YNAR 261900Z AUTO 12005KT //// // ////// 10/05 Q1026
YSSY - Sydney Intl Airp, Australia
Distance from station: NE 253km
Updated: 27/05/2018 05:00
Clear
Clear
 Wind from NNW
Wind: NNW 13 km/h
Temperature: 11°C
Dew Point: 9°C
Humidity: 88%
Barometer: 1027 hPa
Summary: Clear
Visibility: greater than 10 km
2018/05/26 19:00 YSSY 261900Z 34007KT CAVOK 11/09 Q1027
 
YSRI - Richmond (aus-Af, Australia
Distance from station: NE 257km
Updated: 27/05/2018 05:30
Overcast
Overcast
 Wind from calm
Wind: Calm
Temperature: 5°C
Dew Point: 5°C
Humidity: 100%
Barometer: 1028 hPa
Clouds: Overcast
Visibility: 0 km
Cloud details: Overcast 30 m
2018/05/26 19:30 YSRI 261930Z AUTO 00000KT 0100 // OVC001 05/05 Q1028
YWGT - Wangaratta Arp, Australia
Distance from station: WSW 274km
Updated: 27/05/2018 05:21
Partly cloudy
Partly cloudy
 Wind from SW
Wind: SW 6 km/h
Temperature: 3°C
Dew Point: 3°C
Humidity: 100%
Barometer: 1026 hPa
Clouds: Partly cloudy
Visibility: 10 km
Cloud details: Partly cloudy 1981 m
2018/05/26 19:21 YWGT 261921Z AUTO 22003KT 9999 // SCT065 03/03 Q1026
 
YGTH - Griffith Arpt, Australia
Distance from station: WNW 308km
Updated: 27/05/2018 05:00
Clear
Clear
 Wind from E
Wind: E 7 km/h
Temperature: 9°C
Wind Chill: 8°C
Dew Point: 6°C
Humidity: 82%
Barometer: 1025 hPa
Clouds: Clear
Visibility: 10 km
2018/05/26 19:00 YGTH 261900Z AUTO 10004KT 9999 // NCD 09/06 Q1025